Time;durP1;ratioP1;P1;durP2;ratioP2;P2;SDS_P1;SDS_P2;PMS_P1;PMS_P2;Temp;Humidity;BMP_temperature;BMP_pressure;BME280_temperature;BME280_humidity;BME280_pressure;Samples;Min_cycle;Max_cycle;Signal;HPM_P1;HPM_P2
2020/12/16 00:01:04;;;;;;;5.90;5.30;;;;;;;5.91;89.65;95502.16;5053420;28;20542;-79
2020/12/16 00:03:29;;;;;;;5.80;5.20;;;;;;;5.88;89.57;95502.38;5080440;28;20208;-78
2020/12/16 00:05:55;;;;;;;6.23;5.30;;;;;;;5.85;89.46;95503.44;5056898;28;20547;-80
2020/12/16 00:08:20;;;;;;;6.30;5.67;;;;;;;5.80;89.65;95505.53;5073991;28;20184;-78
2020/12/16 00:10:45;;;;;;;6.43;5.83;;;;;;;5.80;89.59;95502.97;5073626;28;20247;-79
2020/12/16 00:13:11;;;;;;;7.47;5.93;;;;;;;5.78;89.69;95504.84;5070416;28;20237;-79
2020/12/16 00:15:37;;;;;;;8.13;6.30;;;;;;;5.77;89.74;95495.47;5068105;28;20255;-78
2020/12/16 00:18:03;;;;;;;7.43;5.53;;;;;;;5.75;89.33;95501.69;5067346;28;20181;-79
2020/12/16 00:20:28;;;;;;;7.13;6.33;;;;;;;5.68;89.63;95497.00;5040291;28;20276;-78
2020/12/16 00:22:53;;;;;;;6.53;5.93;;;;;;;5.68;89.61;95496.19;5057629;28;20196;-80
2020/12/16 00:25:19;;;;;;;7.37;5.80;;;;;;;5.69;89.38;95503.00;5083516;28;20200;-79
2020/12/16 00:27:44;;;;;;;6.10;5.00;;;;;;;5.72;89.31;95501.91;5074022;28;20251;-79
2020/12/16 00:30:10;;;;;;;6.07;5.40;;;;;;;5.60;89.20;95501.13;5056614;28;20548;-80
2020/12/16 00:32:36;;;;;;;6.43;5.20;;;;;;;5.59;89.41;95504.63;5057333;28;20188;-78
2020/12/16 00:35:03;;;;;;;5.67;4.73;;;;;;;5.71;89.47;95510.59;5073137;28;20228;-79
2020/12/16 00:37:29;;;;;;;5.70;4.77;;;;;;;5.59;89.83;95510.59;5075887;28;20216;-79
2020/12/16 00:39:54;;;;;;;5.70;5.07;;;;;;;5.67;89.11;95510.03;5076574;28;20172;-78
2020/12/16 00:42:19;;;;;;;5.53;4.90;;;;;;;5.61;89.33;95513.88;5076711;28;20176;-79
2020/12/16 00:44:45;;;;;;;7.70;5.87;;;;;;;5.63;89.63;95518.91;5081572;28;20219;-78
2020/12/16 00:47:10;;;;;;;6.93;5.57;;;;;;;5.61;89.46;95511.31;5091334;28;20644;-79
2020/12/16 00:49:35;;;;;;;6.40;5.67;;;;;;;5.61;89.58;95521.59;5094191;28;20276;-79
2020/12/16 00:52:01;;;;;;;7.13;5.77;;;;;;;5.61;89.59;95520.78;5076006;28;20180;-79
2020/12/16 00:54:26;;;;;;;6.27;5.23;;;;;;;5.60;89.47;95517.41;5059441;28;20197;-79
2020/12/16 00:56:51;;;;;;;6.97;5.03;;;;;;;5.65;89.45;95524.75;5074326;28;20192;-79
2020/12/16 00:59:17;;;;;;;5.47;4.97;;;;;;;5.60;89.52;95527.69;5072050;28;20185;-79
2020/12/16 01:01:42;;;;;;;5.40;4.63;;;;;;;5.58;89.67;95532.16;5074004;28;20181;-78
2020/12/16 01:04:07;;;;;;;4.47;4.07;;;;;;;5.56;89.38;95533.19;5056596;28;20205;-79
2020/12/16 01:06:32;;;;;;;4.70;4.20;;;;;;;5.59;89.37;95536.38;5056612;28;20261;-79
2020/12/16 01:08:58;;;;;;;4.43;3.77;;;;;;;5.59;89.61;95538.94;5070499;28;20209;-78
2020/12/16 01:11:23;;;;;;;3.70;3.27;;;;;;;5.60;89.66;95542.34;5075032;28;20191;-79
2020/12/16 01:13:48;;;;;;;3.50;3.20;;;;;;;5.70;89.26;95538.13;5059503;28;20287;-79
2020/12/16 01:16:14;;;;;;;3.23;2.93;;;;;;;5.74;89.12;95542.09;5076418;28;20176;-78
2020/12/16 01:18:39;;;;;;;4.17;3.20;;;;;;;5.68;88.93;95534.84;5072060;28;20215;-80
2020/12/16 01:21:04;;;;;;;4.53;3.13;;;;;;;5.68;89.05;95532.28;5072294;28;20649;-78
2020/12/16 01:23:30;;;;;;;3.40;2.80;;;;;;;5.73;89.17;95535.28;5055728;28;20193;-79
2020/12/16 01:25:55;;;;;;;3.73;2.63;;;;;;;5.72;89.17;95538.81;5056087;28;20531;-79
2020/12/16 01:28:20;;;;;;;3.30;2.97;;;;;;;5.72;89.13;95543.16;5054797;28;20198;-79
2020/12/16 01:30:46;;;;;;;3.13;2.60;;;;;;;5.70;89.12;95535.53;5071536;28;20177;-79
2020/12/16 01:33:11;;;;;;;2.50;2.30;;;;;;;5.73;89.13;95535.28;5054773;28;20267;-80
2020/12/16 01:35:36;;;;;;;2.40;2.10;;;;;;;5.78;89.26;95533.19;5076280;28;20234;-79
2020/12/16 01:38:02;;;;;;;2.73;2.20;;;;;;;5.84;89.03;95537.06;5055757;28;20632;-80
2020/12/16 01:40:27;;;;;;;2.30;2.10;;;;;;;5.85;88.73;95526.63;5073609;28;20544;-79
2020/12/16 01:42:52;;;;;;;1.90;1.70;;;;;;;5.83;88.78;95535.41;5072574;28;20252;-78
2020/12/16 01:45:23;;;;;;;2.57;2.13;;;;;;;5.83;88.94;95533.66;5082374;28;20769;-78
2020/12/16 01:47:49;;;;;;;2.20;2.00;;;;;;;5.82;88.77;95533.75;5092717;28;20184;-80
2020/12/16 01:50:14;;;;;;;3.90;1.70;;;;;;;5.87;88.62;95536.81;5058324;28;20184;-79
2020/12/16 01:52:40;;;;;;;2.47;2.17;;;;;;;5.84;88.53;95543.03;5075496;28;20177;-79
2020/12/16 01:55:08;;;;;;;2.77;1.90;;;;;;;5.89;88.50;95542.66;5073149;28;20335;-79
2020/12/16 01:57:38;;;;;;;2.17;1.97;;;;;;;5.89;88.73;95548.63;5066778;28;20176;-79
2020/12/16 02:00:07;;;;;;;3.30;2.10;;;;;;;5.86;88.50;95548.88;5092338;28;20173;-79
2020/12/16 02:02:35;;;;;;;2.27;1.87;;;;;;;5.91;88.57;95538.22;5058857;28;20208;-78
2020/12/16 02:05:02;;;;;;;2.43;1.90;;;;;;;5.89;88.38;95542.66;5058748;28;20216;-78
2020/12/16 02:07:27;;;;;;;2.23;2.03;;;;;;;5.86;88.49;95543.72;5076044;28;20188;-79
2020/12/16 02:09:53;;;;;;;2.13;1.67;;;;;;;5.85;88.44;95538.69;5055430;28;20180;-80
2020/12/16 02:12:23;;;;;;;2.47;2.00;;;;;;;5.83;88.47;95541.41;5055351;28;20270;-79
2020/12/16 02:14:49;;;;;;;2.30;2.10;;;;;;;5.87;88.81;95537.63;5055228;28;20208;-79
2020/12/16 02:17:14;;;;;;;2.47;2.27;;;;;;;5.83;88.53;95533.66;5060700;28;20188;-79
2020/12/16 02:19:42;;;;;;;2.23;1.97;;;;;;;5.79;88.52;95534.84;5054532;28;20184;-80
2020/12/16 02:22:11;;;;;;;3.70;1.87;;;;;;;5.82;88.53;95544.06;5071219;28;20180;-79
2020/12/16 02:24:40;;;;;;;1.67;1.50;;;;;;;5.84;88.73;95542.22;5071550;28;20258;-79
2020/12/16 02:27:05;;;;;;;2.57;1.70;;;;;;;5.82;88.60;95544.88;5040777;28;20678;-79
2020/12/16 02:29:30;;;;;;;2.97;1.70;;;;;;;5.83;88.64;95543.97;5070861;28;20203;-78
2020/12/16 02:31:56;;;;;;;2.63;1.63;;;;;;;5.93;88.44;95544.94;5054493;28;20224;-80
2020/12/16 02:34:21;;;;;;;1.63;1.50;;;;;;;5.84;88.25;95537.88;5054309;28;20189;-80
2020/12/16 02:36:47;;;;;;;2.23;1.60;;;;;;;5.84;88.31;95543.03;5038167;28;20203;-79
2020/12/16 02:39:12;;;;;;;1.97;1.53;;;;;;;5.80;88.75;95551.94;5058549;28;20264;-80
2020/12/16 02:41:37;;;;;;;2.47;1.70;;;;;;;5.75;88.56;95546.31;5090754;28;20180;-79
2020/12/16 02:44:03;;;;;;;1.80;1.70;;;;;;;5.73;88.53;95545.59;5074270;28;20228;-79
2020/12/16 02:46:28;;;;;;;1.63;1.40;;;;;;;5.70;88.55;95556.16;5074434;28;20669;-78
2020/12/16 02:48:53;;;;;;;1.57;1.30;;;;;;;5.70;88.73;95553.56;5089859;28;20615;-79
2020/12/16 02:51:19;;;;;;;2.63;1.43;;;;;;;5.72;88.78;95546.53;5070938;28;20191;-79
2020/12/16 02:53:44;;;;;;;1.33;1.20;;;;;;;5.78;88.70;95548.66;5053984;28;20201;-79
2020/12/16 02:56:09;;;;;;;1.50;1.40;;;;;;;5.75;88.52;95541.16;5054514;28;20185;-78
2020/12/16 02:58:34;;;;;;;2.43;1.97;;;;;;;5.81;88.63;95537.28;5053829;28;20199;-79
2020/12/16 03:01:00;;;;;;;3.53;1.90;;;;;;;5.79;88.33;95531.44;5089636;28;20635;-79
2020/12/16 03:03:25;;;;;;;4.40;2.03;;;;;;;5.75;88.31;95538.59;5073933;28;20686;-79
2020/12/16 03:05:50;;;;;;;2.30;2.10;;;;;;;5.74;88.71;95530.97;5057475;28;20196;-79
2020/12/16 03:08:16;;;;;;;2.60;2.40;;;;;;;5.70;88.68;95535.53;5057566;28;20186;-78
2020/12/16 03:10:41;;;;;;;2.30;2.10;;;;;;;5.73;88.57;95532.72;5068571;28;20192;-80
2020/12/16 03:13:06;;;;;;;2.80;2.10;;;;;;;5.71;88.69;95534.59;5069768;28;20237;-78
2020/12/16 03:15:32;;;;;;;2.57;2.13;;;;;;;5.67;88.66;95538.38;5073842;28;20749;-79
2020/12/16 03:17:57;;;;;;;1.90;1.70;;;;;;;5.70;88.81;95545.84;5074412;28;20663;-80
2020/12/16 03:20:22;;;;;;;1.53;1.40;;;;;;;5.71;88.65;95546.66;5070412;28;20196;-79
2020/12/16 03:22:48;;;;;;;1.97;1.70;;;;;;;5.76;88.61;95534.25;5061098;28;20648;-79
2020/12/16 03:25:13;;;;;;;1.50;1.40;;;;;;;5.83;88.14;95543.13;5067805;28;20213;-79
2020/12/16 03:27:39;;;;;;;2.93;1.50;;;;;;;5.84;88.14;95537.06;5071790;28;20181;-78
2020/12/16 03:30:05;;;;;;;1.50;1.40;;;;;;;5.83;88.14;95536.25;5037088;28;20671;-79
2020/12/16 03:32:30;;;;;;;2.80;1.80;;;;;;;5.84;88.12;95537.88;5065951;28;20211;-80
2020/12/16 03:34:55;;;;;;;2.63;1.80;;;;;;;5.75;88.13;95538.59;5073905;28;20201;-78
2020/12/16 03:37:21;;;;;;;2.77;1.60;;;;;;;5.72;88.38;95543.97;5073588;28;20181;-79
2020/12/16 03:39:46;;;;;;;1.27;1.17;;;;;;;5.72;88.36;95548.31;5057183;28;20180;-79
2020/12/16 03:42:11;;;;;;;1.47;1.33;;;;;;;5.73;88.57;95539.63;5084719;28;20592;-79
2020/12/16 03:44:36;;;;;;;2.57;1.50;;;;;;;5.75;88.22;95538.59;5056121;28;20204;-80
2020/12/16 03:47:02;;;;;;;1.40;1.20;;;;;;;5.73;88.38;95540.44;5091709;28;20550;-78
2020/12/16 03:49:27;;;;;;;2.23;1.10;;;;;;;5.81;88.11;95543.25;5071847;28;20177;-79
2020/12/16 03:51:55;;;;;;;2.37;1.53;;;;;;;5.80;87.93;95533.06;5088551;28;20185;-79
2020/12/16 03:54:22;;;;;;;1.70;1.60;;;;;;;5.75;87.90;95535.19;5077840;28;20204;-78
2020/12/16 03:56:47;;;;;;;1.90;1.67;;;;;;;5.62;87.80;95543.03;5097653;28;20547;-79
2020/12/16 03:59:13;;;;;;;2.03;1.90;;;;;;;5.54;88.16;95541.03;5097606;28;20183;-80
2020/12/16 04:01:38;;;;;;;1.97;1.77;;;;;;;5.55;88.17;95552.16;5081671;28;20192;-78
2020/12/16 04:04:04;;;;;;;3.03;1.80;;;;;;;5.49;88.27;95547.50;5073825;28;20208;-79
2020/12/16 04:06:29;;;;;;;1.47;1.37;;;;;;;5.55;88.15;95552.16;5074990;28;20189;-79
2020/12/16 04:08:54;;;;;;;2.03;1.40;;;;;;;5.46;87.92;95545.13;5040396;28;20185;-78
2020/12/16 04:11:20;;;;;;;1.53;1.37;;;;;;;5.40;88.20;95543.88;5059549;28;20204;-78
2020/12/16 04:13:45;;;;;;;1.57;1.20;;;;;;;5.34;88.09;95539.97;5076539;28;20199;-78
2020/12/16 04:16:14;;;;;;;2.50;1.40;;;;;;;5.29;87.86;95542.06;5060385;28;20181;-78
2020/12/16 04:18:39;;;;;;;1.40;1.30;;;;;;;5.33;87.96;95535.78;5076394;28;20582;-80
2020/12/16 04:21:05;;;;;;;2.17;1.63;;;;;;;5.21;88.13;95528.97;5094193;28;20181;-79
2020/12/16 04:23:31;;;;;;;1.93;1.73;;;;;;;5.13;88.03;95535.63;5090060;28;20212;-78
2020/12/16 04:25:56;;;;;;;2.27;1.70;;;;;;;5.13;88.11;95544.19;5077063;28;20180;-79
2020/12/16 04:28:21;;;;;;;2.83;2.00;;;;;;;5.00;88.19;95546.81;5076584;28;20233;-79
2020/12/16 04:30:46;;;;;;;2.40;2.20;;;;;;;5.02;88.28;95551.84;5076881;28;20207;-78
2020/12/16 04:33:12;;;;;;;2.00;1.90;;;;;;;5.02;88.30;95551.84;5071229;28;20228;-79
2020/12/16 04:35:37;;;;;;;3.73;2.40;;;;;;;4.99;88.57;95552.09;5094098;28;20259;-78
2020/12/16 04:38:02;;;;;;;2.37;1.77;;;;;;;5.06;88.16;95555.88;5059947;28;20189;-78
2020/12/16 04:40:28;;;;;;;2.80;1.83;;;;;;;5.10;88.39;95557.25;5076477;28;20176;-79
2020/12/16 04:43:20;;;;;;;2.00;1.73;;;;;;;5.11;88.09;95556.31;5074522;28;20648;-81
2020/12/16 04:45:45;;;;;;;2.23;2.03;;;;;;;5.18;88.50;95564.41;5068591;28;20247;-78
2020/12/16 04:48:12;;;;;;;2.30;2.10;;;;;;;5.21;88.16;95561.59;5059931;28;20204;-78
2020/12/16 04:50:39;;;;;;;2.17;1.97;;;;;;;5.27;88.22;95568.88;5075974;28;20169;-78
2020/12/16 04:53:07;;;;;;;2.40;2.20;;;;;;;5.23;88.58;95572.63;5059663;28;20306;-80
2020/12/16 04:55:33;;;;;;;2.10;1.90;;;;;;;5.24;88.36;95561.41;5057532;28;20585;-80
2020/12/16 04:58:00;;;;;;;1.90;1.70;;;;;;;5.28;88.08;95566.19;5094344;28;20710;-80
2020/12/16 05:00:27;;;;;;;1.80;1.50;;;;;;;5.33;87.79;95564.09;5075925;28;20227;-78
2020/12/16 05:02:54;;;;;;;1.50;1.40;;;;;;;5.36;87.68;95569.00;5093004;28;20275;-79
2020/12/16 05:05:19;;;;;;;2.53;1.40;;;;;;;5.40;87.69;95565.28;5091027;28;20573;-79
2020/12/16 05:07:48;;;;;;;1.47;1.37;;;;;;;5.38;87.51;95567.13;5076039;28;20186;-79
2020/12/16 05:10:14;;;;;;;1.60;1.50;;;;;;;5.34;87.68;95565.72;5075828;28;20708;-79
2020/12/16 05:12:39;;;;;;;1.63;1.53;;;;;;;5.35;87.61;95564.78;5076087;28;20188;-78
2020/12/16 05:15:20;;;;;;;2.07;1.83;;;;;;;5.31;87.77;95565.97;5090723;28;20286;-79
2020/12/16 05:18:02;;;;;;;1.50;1.40;;;;;;;5.37;88.07;95565.50;5069073;28;20169;-79
2020/12/16 05:20:28;;;;;;;3.23;1.90;;;;;;;5.37;87.64;95580.13;5075755;28;20571;-78
2020/12/16 05:22:58;;;;;;;2.00;1.80;;;;;;;5.35;87.65;95572.53;5076123;28;20188;-79
2020/12/16 05:25:24;;;;;;;1.80;1.70;;;;;;;5.34;87.74;95572.66;5092713;28;20207;-79
2020/12/16 05:27:49;;;;;;;2.30;1.77;;;;;;;5.33;87.70;95573.56;5070548;28;20192;-79
2020/12/16 05:30:15;;;;;;;2.13;1.87;;;;;;;5.35;87.58;95574.28;5090782;28;20195;-78
2020/12/16 05:32:40;;;;;;;2.37;1.90;;;;;;;5.29;87.89;95585.84;5058855;28;20184;-78
2020/12/16 05:35:28;;;;;;;2.43;2.23;;;;;;;5.35;87.96;95587.16;5075920;28;20603;-80
2020/12/16 05:38:08;;;;;;;2.57;2.03;;;;;;;5.38;87.84;95581.75;5071379;28;20323;-80
2020/12/16 05:40:36;;;;;;;2.47;2.27;;;;;;;5.42;87.87;95585.75;5091772;28;20240;-78
2020/12/16 05:43:02;;;;;;;3.00;2.47;;;;;;;5.32;87.58;95592.53;5075061;28;20321;-78
2020/12/16 05:45:29;;;;;;;4.60;2.90;;;;;;;5.31;87.72;95598.63;5075256;28;20283;-78
2020/12/16 05:48:10;;;;;;;2.83;2.57;;;;;;;5.35;87.56;95608.56;5053912;28;20198;-79
2020/12/16 05:50:39;;;;;;;2.93;2.60;;;;;;;5.32;87.87;95608.00;5058350;28;20192;-78
2020/12/16 05:53:17;;;;;;;3.20;2.80;;;;;;;5.32;87.99;95613.97;5058018;28;20531;-79
2020/12/16 05:55:42;;;;;;;2.47;2.27;;;;;;;5.32;87.64;95611.38;5075185;28;20640;-79
2020/12/16 05:58:11;;;;;;;2.20;2.00;;;;;;;5.31;87.96;95612.31;5090139;28;20184;-79
2020/12/16 06:00:55;;;;;;;2.50;2.30;;;;;;;5.31;88.10;95603.78;5074318;28;20177;-79
2020/12/16 06:03:30;;;;;;;3.20;2.40;;;;;;;5.31;87.79;95612.31;5074862;28;20176;-79
2020/12/16 06:05:57;;;;;;;2.67;2.17;;;;;;;5.33;87.76;95623.31;5058624;28;20325;-79
2020/12/16 06:08:24;;;;;;;2.47;2.10;;;;;;;5.36;87.72;95623.09;5072517;28;20169;-79
2020/12/16 06:10:51;;;;;;;2.50;2.30;;;;;;;5.47;87.31;95622.28;5073576;28;20215;-78
2020/12/16 06:13:17;;;;;;;3.70;2.40;;;;;;;5.44;87.23;95626.84;5092007;28;20196;-78
2020/12/16 06:15:47;;;;;;;2.53;2.20;;;;;;;5.42;87.31;95618.44;5057770;28;20542;-79
2020/12/16 06:18:15;;;;;;;5.97;4.37;;;;;;;5.46;87.33;95612.09;5074585;28;20229;-79
2020/12/16 06:20:41;;;;;;;4.80;4.07;;;;;;;5.48;87.32;95612.78;5067330;28;20194;-78
2020/12/16 06:23:09;;;;;;;4.03;2.73;;;;;;;5.44;87.45;95617.38;5068859;28;20193;-77
2020/12/16 06:25:36;;;;;;;3.00;2.70;;;;;;;5.45;87.52;95611.28;5040549;28;20227;-77
2020/12/16 06:28:02;;;;;;;2.60;2.40;;;;;;;5.47;87.47;95606.00;5074960;28;20184;-78
2020/12/16 06:30:32;;;;;;;2.30;2.10;;;;;;;5.48;87.39;95612.78;5070632;28;20204;-77
2020/12/16 06:33:05;;;;;;;2.43;2.20;;;;;;;5.56;86.97;95607.91;5091347;28;20176;-77
2020/12/16 06:35:30;;;;;;;2.40;2.03;;;;;;;5.50;86.92;95614.34;5074337;28;20180;-77
2020/12/16 06:38:19;;;;;;;3.50;2.77;;;;;;;5.53;86.98;95601.22;5058124;28;20180;-78
2020/12/16 06:40:46;;;;;;;2.63;2.27;;;;;;;5.49;87.02;95606.75;5070186;28;20184;-79
2020/12/16 06:43:30;;;;;;;2.87;2.67;;;;;;;5.63;86.70;95611.66;5057642;28;20684;-78
2020/12/16 06:45:55;;;;;;;2.80;2.50;;;;;;;5.61;86.95;95593.75;5092428;28;20204;-78
2020/12/16 06:48:38;;;;;;;3.63;2.87;;;;;;;5.54;86.74;95602.03;5074284;28;20183;-77
2020/12/16 06:51:23;;;;;;;4.00;3.60;;;;;;;5.50;87.14;95610.94;5072673;28;20176;-78
2020/12/16 06:53:49;;;;;;;2.43;2.23;;;;;;;5.55;86.59;95619.13;5064125;28;20749;-77
2020/12/16 06:56:19;;;;;;;2.40;2.20;;;;;;;5.56;86.75;95619.00;5065890;28;20629;-77
2020/12/16 06:58:44;;;;;;;3.17;2.23;;;;;;;5.64;86.56;95624.41;5065659;28;20169;-78
2020/12/16 07:01:15;;;;;;;2.20;2.00;;;;;;;5.59;86.60;95625.72;5037818;28;20177;-79
2020/12/16 07:03:41;;;;;;;2.30;2.00;;;;;;;5.64;86.21;95615.88;5084535;28;20554;-79
2020/12/16 07:06:11;;;;;;;3.70;2.63;;;;;;;5.58;86.34;95619.75;5073530;28;20188;-78
2020/12/16 07:08:40;;;;;;;2.50;2.30;;;;;;;5.59;86.46;95626.53;5090656;28;20180;-79
2020/12/16 07:11:05;;;;;;;2.80;2.53;;;;;;;5.52;86.38;95620.19;5092358;28;20550;-79
2020/12/16 07:13:32;;;;;;;2.60;2.30;;;;;;;5.54;86.47;95631.19;5069436;28;20200;-78
2020/12/16 07:16:07;;;;;;;3.03;2.73;;;;;;;5.53;86.50;95636.47;5070605;28;20548;-78
2020/12/16 07:18:39;;;;;;;4.87;3.20;;;;;;;5.50;86.46;95642.69;5053236;28;20268;-79
2020/12/16 07:21:07;;;;;;;6.67;3.17;;;;;;;5.58;86.21;95655.00;5071758;28;20177;-79
2020/12/16 07:23:39;;;;;;;3.27;2.97;;;;;;;5.58;86.22;95670.44;5072064;28;20204;-77
2020/12/16 07:26:05;;;;;;;5.07;3.70;;;;;;;5.58;86.00;95670.44;5069079;28;20216;-78
2020/12/16 07:28:36;;;;;;;3.60;3.00;;;;;;;5.59;85.81;95662.59;5077455;28;20219;-78
2020/12/16 07:31:04;;;;;;;3.47;3.10;;;;;;;5.55;85.97;95670.66;5094529;28;20544;-78
2020/12/16 07:33:30;;;;;;;3.37;2.90;;;;;;;5.57;86.29;95666.22;5060795;28;20200;-78
2020/12/16 07:35:58;;;;;;;3.67;3.07;;;;;;;5.55;85.92;95668.91;5091498;28;20180;-78
2020/12/16 07:38:23;;;;;;;4.10;3.17;;;;;;;5.51;86.42;95664.09;5076307;28;20201;-77
2020/12/16 07:40:53;;;;;;;4.33;3.23;;;;;;;5.51;86.29;95666.69;5095276;28;20184;-77
2020/12/16 07:43:19;;;;;;;3.57;2.83;;;;;;;5.50;86.47;95663.28;5077779;28;20226;-77
2020/12/16 07:45:46;;;;;;;6.40;3.33;;;;;;;5.49;86.63;95659.06;5074454;28;20269;-78
2020/12/16 07:48:15;;;;;;;3.43;3.00;;;;;;;5.56;86.55;95659.41;5076588;28;20259;-77
2020/12/16 07:50:40;;;;;;;4.83;3.10;;;;;;;5.56;86.29;95667.13;5094021;28;20236;-77
2020/12/16 07:53:06;;;;;;;3.83;2.67;;;;;;;5.58;86.15;95660.16;5093481;28;20181;-78
2020/12/16 07:55:37;;;;;;;4.10;3.33;;;;;;;5.60;86.23;95668.56;5090214;28;20206;-78
2020/12/16 07:58:07;;;;;;;5.13;2.90;;;;;;;5.63;86.49;95670.91;5089488;28;20177;-78
2020/12/16 08:00:32;;;;;;;5.47;3.17;;;;;;;5.65;86.23;95669.88;5060877;28;20212;-77
2020/12/16 08:02:57;;;;;;;3.40;3.10;;;;;;;5.69;86.05;95668.69;5077265;28;20215;-77
2020/12/16 08:05:24;;;;;;;4.00;3.37;;;;;;;5.73;85.57;95669.28;5060066;28;20223;-77
2020/12/16 08:07:50;;;;;;;4.00;2.87;;;;;;;5.73;85.29;95666.69;5068207;28;20692;-79
2020/12/16 08:10:16;;;;;;;3.83;2.93;;;;;;;5.79;85.74;95671.41;5073998;28;20656;-78
2020/12/16 08:12:42;;;;;;;3.33;3.03;;;;;;;5.87;85.32;95671.66;5094842;28;20183;-79
2020/12/16 08:15:10;;;;;;;3.93;3.10;;;;;;;5.86;85.11;95664.84;5077029;28;20196;-78
2020/12/16 08:17:40;;;;;;;3.20;2.70;;;;;;;5.91;85.09;95667.09;5067741;28;20271;-77
2020/12/16 08:20:09;;;;;;;3.40;3.10;;;;;;;5.95;84.94;95677.09;5047894;28;20180;-79
2020/12/16 08:22:36;;;;;;;3.47;3.13;;;;;;;6.03;84.67;95668.78;5059930;28;20184;-78
2020/12/16 08:25:08;;;;;;;3.57;3.23;;;;;;;6.03;84.66;95665.38;5094783;28;20296;-78
2020/12/16 08:27:34;;;;;;;3.47;2.87;;;;;;;6.06;84.76;95671.09;5073911;28;20181;-78
2020/12/16 08:29:59;;;;;;;3.73;3.00;;;;;;;6.11;84.67;95673.34;5072020;28;20196;-78
2020/12/16 08:32:26;;;;;;;3.30;2.90;;;;;;;6.18;84.06;95669.34;5056541;28;20645;-77
2020/12/16 08:34:52;;;;;;;4.37;2.90;;;;;;;6.28;84.04;95672.06;5056625;28;20242;-77
2020/12/16 08:37:18;;;;;;;3.70;3.30;;;;;;;6.24;84.05;95669.69;5056474;28;20173;-77
2020/12/16 08:39:44;;;;;;;5.63;4.77;;;;;;;6.28;84.54;95659.16;5050642;28;20188;-78
2020/12/16 08:42:11;;;;;;;5.20;3.40;;;;;;;6.31;83.79;95659.72;5069268;28;20184;-77
2020/12/16 08:44:36;;;;;;;4.90;3.87;;;;;;;6.38;83.35;95658.31;5059798;28;20215;-79
2020/12/16 08:47:01;;;;;;;4.33;3.83;;;;;;;6.34;83.36;95661.25;5060013;28;20185;-79
2020/12/16 08:49:27;;;;;;;5.13;3.77;;;;;;;6.39;83.79;95672.84;5076386;28;20181;-77
2020/12/16 08:51:56;;;;;;;4.80;3.93;;;;;;;6.37;82.83;95674.75;5055942;28;20223;-77
2020/12/16 08:54:26;;;;;;;5.50;4.60;;;;;;;6.41;82.86;95670.97;5057308;28;20250;-77
2020/12/16 08:56:52;;;;;;;5.60;4.20;;;;;;;6.46;82.72;95671.44;5050362;28;20173;-78
2020/12/16 08:59:21;;;;;;;6.27;4.10;;;;;;;6.52;82.72;95667.56;5073845;28;20185;-77
2020/12/16 09:01:53;;;;;;;4.73;3.97;;;;;;;6.59;82.49;95671.31;5094011;28;20180;-78
2020/12/16 09:04:27;;;;;;;4.80;4.10;;;;;;;6.61;82.37;95677.16;5059311;28;20220;-77
2020/12/16 09:07:06;;;;;;;4.70;3.10;;;;;;;6.71;82.01;95679.81;5092523;28;20259;-78
2020/12/16 09:09:33;;;;;;;4.67;3.27;;;;;;;6.67;81.88;95681.03;5090119;28;20640;-78
2020/12/16 09:11:58;;;;;;;4.43;3.27;;;;;;;6.77;82.01;95684.50;5071946;28;20177;-78
2020/12/16 09:14:24;;;;;;;3.90;3.00;;;;;;;6.78;81.98;95678.41;5062998;28;20672;-78
2020/12/16 09:16:50;;;;;;;4.57;3.00;;;;;;;6.95;81.58;95687.41;5092507;28;20188;-78
2020/12/16 09:19:23;;;;;;;3.23;2.90;;;;;;;7.02;81.39;95683.41;5075375;28;20192;-78
2020/12/16 09:21:52;;;;;;;3.30;2.57;;;;;;;7.05;81.19;95678.78;5075436;28;20180;-77
2020/12/16 09:24:19;;;;;;;3.60;2.60;;;;;;;7.12;80.75;95689.47;5069345;28;20221;-77
2020/12/16 09:26:46;;;;;;;3.30;2.67;;;;;;;7.06;80.87;95693.34;5073894;28;20604;-77
2020/12/16 09:29:18;;;;;;;2.40;2.20;;;;;;;7.05;81.12;95693.47;5070862;28;20292;-78
2020/12/16 09:31:43;;;;;;;3.17;2.87;;;;;;;7.21;81.24;95690.47;5093072;28;20662;-78
2020/12/16 09:34:09;;;;;;;3.33;2.77;;;;;;;7.31;81.27;95693.97;5075226;28;20196;-77
2020/12/16 09:36:34;;;;;;;4.90;2.90;;;;;;;7.54;80.75;95695.50;5058463;28;20550;-78
2020/12/16 09:39:01;;;;;;;3.90;3.13;;;;;;;7.50;80.46;95696.69;5072890;28;20660;-78
2020/12/16 09:41:27;;;;;;;3.53;3.17;;;;;;;7.56;79.87;95696.19;5065774;28;20184;-78
2020/12/16 09:43:52;;;;;;;3.63;3.00;;;;;;;7.48;79.20;95706.34;5075045;28;20208;-77
2020/12/16 09:46:22;;;;;;;3.10;2.60;;;;;;;7.63;79.01;95697.34;5073215;28;20172;-78
2020/12/16 09:48:50;;;;;;;2.50;2.30;;;;;;;7.73;78.75;95701.75;5073180;28;20571;-78
2020/12/16 09:51:17;;;;;;;2.83;2.43;;;;;;;7.67;78.37;95698.72;5090716;28;20216;-78
2020/12/16 09:53:43;;;;;;;3.17;2.43;;;;;;;7.74;79.42;95693.06;5074919;28;20192;-77
2020/12/16 09:56:21;;;;;;;3.30;2.63;;;;;;;7.70;79.06;95689.09;5075016;28;20325;-77
2020/12/16 09:58:46;;;;;;;2.70;2.50;;;;;;;7.67;78.83;95696.13;5060626;28;20289;-79
2020/12/16 10:01:12;;;;;;;4.00;2.00;;;;;;;7.60;79.35;95687.25;5089297;28;20873;-77
2020/12/16 10:03:37;;;;;;;3.23;2.60;;;;;;;7.72;78.51;95684.59;5074521;28;20197;-78
2020/12/16 10:06:02;;;;;;;3.20;2.50;;;;;;;7.71;78.68;95682.97;5074612;28;20271;-77
2020/12/16 10:08:27;;;;;;;3.60;2.37;;;;;;;7.66;78.60;95681.56;5071890;28;20188;-77
2020/12/16 10:10:53;;;;;;;3.20;2.27;;;;;;;7.70;78.82;95692.50;5058806;28;20176;-77
2020/12/16 10:13:18;;;;;;;2.43;2.20;;;;;;;7.67;78.35;95682.38;5093121;28;20173;-78
2020/12/16 10:15:43;;;;;;;2.07;1.77;;;;;;;7.71;77.78;95682.97;5074470;28;20172;-77
2020/12/16 10:18:09;;;;;;;2.73;2.53;;;;;;;7.63;78.39;95687.00;5074556;28;20177;-77
2020/12/16 10:20:34;;;;;;;4.20;2.37;;;;;;;7.71;78.16;95685.56;5066013;28;20185;-78
2020/12/16 10:23:01;;;;;;;3.07;2.20;;;;;;;7.74;77.61;95682.72;5066459;28;20187;-78
2020/12/16 10:25:27;;;;;;;2.10;1.80;;;;;;;7.71;78.07;95685.56;5054797;28;20205;-78
2020/12/16 10:27:53;;;;;;;1.83;1.73;;;;;;;7.62;78.51;95680.19;5050051;28;20211;-79
2020/12/16 10:30:18;;;;;;;2.80;2.00;;;;;;;7.73;77.96;95681.06;5054523;28;20667;-77
2020/12/16 10:32:44;;;;;;;1.90;1.80;;;;;;;7.78;78.13;95684.13;5073622;28;20172;-77
2020/12/16 10:35:09;;;;;;;6.00;2.10;;;;;;;7.87;77.61;95680.75;5091406;28;20196;-77
2020/12/16 10:37:36;;;;;;;2.47;2.10;;;;;;;7.81;78.32;95689.84;5088241;28;20172;-77
2020/12/16 10:40:04;;;;;;;2.37;2.17;;;;;;;7.82;78.30;95685.47;5068730;28;20196;-77
2020/12/16 10:42:30;;;;;;;2.50;2.30;;;;;;;7.94;77.79;95689.63;5056691;28;20187;-78
2020/12/16 10:44:55;;;;;;;3.03;2.17;;;;;;;7.93;77.86;95688.81;5073498;28;20228;-77
2020/12/16 10:47:20;;;;;;;2.73;2.20;;;;;;;8.01;77.44;95680.41;5056940;28;20187;-77
2020/12/16 10:49:46;;;;;;;2.73;2.00;;;;;;;7.91;77.16;95679.53;5073390;28;20619;-78
2020/12/16 10:52:13;;;;;;;1.97;1.80;;;;;;;7.87;77.33;95679.00;5066761;28;20226;-78
2020/12/16 10:54:39;;;;;;;2.03;1.60;;;;;;;7.89;77.03;95677.09;5091395;28;20197;-77
2020/12/16 10:57:05;;;;;;;1.87;1.30;;;;;;;7.94;77.08;95679.28;5073325;28;20744;-77
2020/12/16 10:59:30;;;;;;;1.83;1.70;;;;;;;7.90;77.33;95683.91;5072866;28;20173;-77
2020/12/16 11:01:57;;;;;;;1.80;1.70;;;;;;;7.98;76.75;95675.50;5086983;28;20205;-77
2020/12/16 11:04:22;;;;;;;2.20;2.00;;;;;;;7.91;76.67;95676.97;5057764;28;20702;-77
2020/12/16 11:06:49;;;;;;;2.30;2.10;;;;;;;7.94;77.33;95679.28;5073556;28;20173;-77
2020/12/16 11:09:17;;;;;;;6.37;2.40;;;;;;;7.86;77.53;95668.75;5089659;28;20196;-78
2020/12/16 11:11:47;;;;;;;2.63;2.43;;;;;;;7.88;77.48;95667.69;5059949;28;20514;-78
2020/12/16 11:14:13;;;;;;;2.80;2.60;;;;;;;7.95;77.39;95662.81;5088952;28;20218;-78
2020/12/16 11:16:40;;;;;;;4.40;2.90;;;;;;;7.88;77.44;95652.19;5056194;28;20196;-77
2020/12/16 11:19:06;;;;;;;2.87;2.50;;;;;;;7.88;77.62;95659.94;5086597;28;20667;-78
2020/12/16 11:21:45;;;;;;;4.07;2.40;;;;;;;8.02;77.18;95655.38;5057551;28;20176;-77
2020/12/16 11:24:12;;;;;;;2.93;2.33;;;;;;;8.05;77.52;95650.78;5049597;28;20246;-79
2020/12/16 11:26:49;;;;;;;3.67;2.93;;;;;;;8.14;77.10;95641.41;5072848;28;20298;-77
2020/12/16 11:29:16;;;;;;;4.97;2.13;;;;;;;8.12;77.09;95651.03;5052235;28;20192;-76
2020/12/16 11:31:46;;;;;;;2.83;2.27;;;;;;;8.21;76.98;95640.72;5069749;28;20183;-77
2020/12/16 11:34:13;;;;;;;3.70;2.50;;;;;;;8.26;76.94;95647.31;5054875;28;20192;-77
2020/12/16 11:36:40;;;;;;;5.40;2.33;;;;;;;8.26;76.78;95636.94;5065377;28;20201;-77
2020/12/16 11:39:06;;;;;;;4.87;2.40;;;;;;;8.18;77.54;95641.00;5090867;28;20176;-77
2020/12/16 11:41:31;;;;;;;2.40;2.20;;;;;;;8.20;77.06;95639.09;5073690;28;20192;-79